sensor_id;sensor_type;location;lat;lon;timestamp;P1;durP1;ratioP1;P2;durP2;ratioP2
68989;SDS011;56046;47.270;11.368;2024-01-06T00:02:14;15.63;;;7.23;;
68989;SDS011;56046;47.270;11.368;2024-01-06T00:04:39;16.92;;;6.88;;
68989;SDS011;56046;47.270;11.368;2024-01-06T00:07:04;14.43;;;7.30;;
68989;SDS011;56046;47.270;11.368;2024-01-06T00:09:30;16.27;;;6.57;;
68989;SDS011;56046;47.270;11.368;2024-01-06T00:11:55;13.97;;;6.43;;
68989;SDS011;56046;47.270;11.368;2024-01-06T00:14:20;18.37;;;6.13;;
68989;SDS011;56046;47.270;11.368;2024-01-06T00:16:45;11.97;;;5.83;;
68989;SDS011;56046;47.270;11.368;2024-01-06T00:19:11;14.67;;;6.67;;
68989;SDS011;56046;47.270;11.368;2024-01-06T00:21:36;10.43;;;5.40;;
68989;SDS011;56046;47.270;11.368;2024-01-06T00:24:01;9.63;;;4.93;;
68989;SDS011;56046;47.270;11.368;2024-01-06T00:26:26;12.50;;;5.17;;
68989;SDS011;56046;47.270;11.368;2024-01-06T00:28:52;10.80;;;5.20;;
68989;SDS011;56046;47.270;11.368;2024-01-06T00:31:17;12.00;;;5.30;;
68989;SDS011;56046;47.270;11.368;2024-01-06T00:33:43;10.97;;;5.40;;
68989;SDS011;56046;47.270;11.368;2024-01-06T00:36:08;10.60;;;5.32;;
68989;SDS011;56046;47.270;11.368;2024-01-06T00:38:34;9.47;;;4.47;;
68989;SDS011;56046;47.270;11.368;2024-01-06T00:41:00;10.70;;;4.82;;
68989;SDS011;56046;47.270;11.368;2024-01-06T00:43:25;10.23;;;3.87;;
68989;SDS011;56046;47.270;11.368;2024-01-06T00:45:50;11.60;;;4.50;;
68989;SDS011;56046;47.270;11.368;2024-01-06T00:48:15;9.97;;;4.73;;
68989;SDS011;56046;47.270;11.368;2024-01-06T00:50:41;10.40;;;4.30;;
68989;SDS011;56046;47.270;11.368;2024-01-06T00:53:06;9.13;;;4.47;;
68989;SDS011;56046;47.270;11.368;2024-01-06T00:55:31;10.67;;;4.80;;
68989;SDS011;56046;47.270;11.368;2024-01-06T00:57:56;9.77;;;4.60;;
68989;SDS011;56046;47.270;11.368;2024-01-06T01:00:22;9.40;;;4.47;;
68989;SDS011;56046;47.270;11.368;2024-01-06T01:02:47;9.02;;;4.43;;
68989;SDS011;56046;47.270;11.368;2024-01-06T01:05:13;10.03;;;4.90;;
68989;SDS011;56046;47.270;11.368;2024-01-06T01:07:38;11.33;;;5.40;;
68989;SDS011;56046;47.270;11.368;2024-01-06T01:10:03;9.67;;;5.03;;
68989;SDS011;56046;47.270;11.368;2024-01-06T01:12:29;9.10;;;4.68;;
68989;SDS011;56046;47.270;11.368;2024-01-06T01:14:55;14.07;;;5.70;;
68989;SDS011;56046;47.270;11.368;2024-01-06T01:17:20;12.47;;;6.23;;
68989;SDS011;56046;47.270;11.368;2024-01-06T01:19:45;14.07;;;6.43;;
68989;SDS011;56046;47.270;11.368;2024-01-06T01:22:11;13.47;;;5.97;;
68989;SDS011;56046;47.270;11.368;2024-01-06T01:24:36;15.33;;;5.87;;
68989;SDS011;56046;47.270;11.368;2024-01-06T01:27:01;10.87;;;4.97;;
68989;SDS011;56046;47.270;11.368;2024-01-06T01:29:27;10.68;;;4.93;;
68989;SDS011;56046;47.270;11.368;2024-01-06T01:31:52;9.57;;;4.20;;
68989;SDS011;56046;47.270;11.368;2024-01-06T01:34:17;7.40;;;3.97;;
68989;SDS011;56046;47.270;11.368;2024-01-06T01:36:42;8.73;;;4.53;;
68989;SDS011;56046;47.270;11.368;2024-01-06T01:39:08;8.90;;;4.45;;
68989;SDS011;56046;47.270;11.368;2024-01-06T01:41:33;10.27;;;4.53;;
68989;SDS011;56046;47.270;11.368;2024-01-06T01:43:58;9.57;;;4.67;;
68989;SDS011;56046;47.270;11.368;2024-01-06T01:46:27;10.23;;;4.50;;
68989;SDS011;56046;47.270;11.368;2024-01-06T01:48:53;9.98;;;4.80;;
68989;SDS011;56046;47.270;11.368;2024-01-06T01:51:20;9.23;;;4.57;;
68989;SDS011;56046;47.270;11.368;2024-01-06T01:53:45;10.02;;;5.03;;
68989;SDS011;56046;47.270;11.368;2024-01-06T01:56:10;10.63;;;5.60;;
68989;SDS011;56046;47.270;11.368;2024-01-06T01:58:36;7.65;;;3.88;;
68989;SDS011;56046;47.270;11.368;2024-01-06T02:01:02;8.95;;;4.35;;
68989;SDS011;56046;47.270;11.368;2024-01-06T02:03:27;10.67;;;4.20;;
68989;SDS011;56046;47.270;11.368;2024-01-06T02:05:54;7.57;;;3.60;;
68989;SDS011;56046;47.270;11.368;2024-01-06T02:08:19;8.70;;;4.30;;
68989;SDS011;56046;47.270;11.368;2024-01-06T02:10:44;7.10;;;3.47;;
68989;SDS011;56046;47.270;11.368;2024-01-06T02:13:10;8.23;;;4.50;;
68989;SDS011;56046;47.270;11.368;2024-01-06T02:15:35;8.80;;;4.33;;
68989;SDS011;56046;47.270;11.368;2024-01-06T02:18:01;10.77;;;4.27;;
68989;SDS011;56046;47.270;11.368;2024-01-06T02:20:26;9.40;;;4.32;;
68989;SDS011;56046;47.270;11.368;2024-01-06T02:22:55;8.50;;;3.97;;
68989;SDS011;56046;47.270;11.368;2024-01-06T02:25:21;7.75;;;4.55;;
68989;SDS011;56046;47.270;11.368;2024-01-06T02:27:46;9.73;;;5.30;;
68989;SDS011;56046;47.270;11.368;2024-01-06T02:30:11;10.60;;;5.37;;
68989;SDS011;56046;47.270;11.368;2024-01-06T02:32:37;10.90;;;5.60;;
68989;SDS011;56046;47.270;11.368;2024-01-06T02:35:02;10.93;;;5.03;;
68989;SDS011;56046;47.270;11.368;2024-01-06T02:37:27;9.47;;;4.63;;
68989;SDS011;56046;47.270;11.368;2024-01-06T02:39:52;9.32;;;5.03;;
68989;SDS011;56046;47.270;11.368;2024-01-06T02:42:18;9.27;;;4.43;;
68989;SDS011;56046;47.270;11.368;2024-01-06T02:44:43;10.43;;;4.87;;
68989;SDS011;56046;47.270;11.368;2024-01-06T02:47:08;9.77;;;5.03;;
68989;SDS011;56046;47.270;11.368;2024-01-06T02:49:33;9.30;;;4.90;;
68989;SDS011;56046;47.270;11.368;2024-01-06T02:51:59;12.13;;;5.20;;
68989;SDS011;56046;47.270;11.368;2024-01-06T02:54:24;11.40;;;5.80;;
68989;SDS011;56046;47.270;11.368;2024-01-06T02:56:49;8.67;;;5.17;;
68989;SDS011;56046;47.270;11.368;2024-01-06T02:59:14;12.60;;;5.00;;
68989;SDS011;56046;47.270;11.368;2024-01-06T03:01:40;9.77;;;5.03;;
68989;SDS011;56046;47.270;11.368;2024-01-06T03:04:05;10.70;;;4.97;;
68989;SDS011;56046;47.270;11.368;2024-01-06T03:06:30;9.80;;;5.13;;
68989;SDS011;56046;47.270;11.368;2024-01-06T03:08:55;11.40;;;6.33;;
68989;SDS011;56046;47.270;11.368;2024-01-06T03:11:21;12.20;;;5.70;;
68989;SDS011;56046;47.270;11.368;2024-01-06T03:13:46;11.10;;;5.40;;
68989;SDS011;56046;47.270;11.368;2024-01-06T03:16:11;11.87;;;5.33;;
68989;SDS011;56046;47.270;11.368;2024-01-06T03:18:36;9.50;;;5.30;;
68989;SDS011;56046;47.270;11.368;2024-01-06T03:21:02;10.80;;;5.60;;
68989;SDS011;56046;47.270;11.368;2024-01-06T03:23:27;9.33;;;5.30;;
68989;SDS011;56046;47.270;11.368;2024-01-06T03:25:52;11.17;;;6.60;;
68989;SDS011;56046;47.270;11.368;2024-01-06T03:28:17;10.23;;;5.10;;
68989;SDS011;56046;47.270;11.368;2024-01-06T03:30:43;13.00;;;5.03;;
68989;SDS011;56046;47.270;11.368;2024-01-06T03:33:08;11.93;;;5.40;;
68989;SDS011;56046;47.270;11.368;2024-01-06T03:35:33;9.53;;;5.40;;
68989;SDS011;56046;47.270;11.368;2024-01-06T03:37:58;11.00;;;5.73;;
68989;SDS011;56046;47.270;11.368;2024-01-06T03:40:24;12.00;;;5.30;;
68989;SDS011;56046;47.270;11.368;2024-01-06T03:42:49;11.07;;;5.17;;
68989;SDS011;56046;47.270;11.368;2024-01-06T03:45:14;10.73;;;5.60;;
68989;SDS011;56046;47.270;11.368;2024-01-06T03:47:39;11.93;;;5.47;;
68989;SDS011;56046;47.270;11.368;2024-01-06T03:50:05;10.45;;;4.65;;
68989;SDS011;56046;47.270;11.368;2024-01-06T03:52:30;13.00;;;5.32;;
68989;SDS011;56046;47.270;11.368;2024-01-06T03:54:55;10.80;;;5.47;;
68989;SDS011;56046;47.270;11.368;2024-01-06T03:57:21;10.50;;;5.10;;
68989;SDS011;56046;47.270;11.368;2024-01-06T03:59:46;12.10;;;5.73;;
68989;SDS011;56046;47.270;11.368;2024-01-06T04:02:11;11.70;;;5.60;;
68989;SDS011;56046;47.270;11.368;2024-01-06T04:04:37;13.10;;;5.83;;
68989;SDS011;56046;47.270;11.368;2024-01-06T04:07:02;10.80;;;6.03;;
68989;SDS011;56046;47.270;11.368;2024-01-06T04:09:27;10.40;;;5.20;;
68989;SDS011;56046;47.270;11.368;2024-01-06T04:11:52;11.40;;;4.97;;
68989;SDS011;56046;47.270;11.368;2024-01-06T04:14:18;9.50;;;5.50;;
68989;SDS011;56046;47.270;11.368;2024-01-06T04:16:43;10.70;;;5.47;;
68989;SDS011;56046;47.270;11.368;2024-01-06T04:19:08;11.00;;;5.47;;
68989;SDS011;56046;47.270;11.368;2024-01-06T04:21:36;9.50;;;5.00;;
68989;SDS011;56046;47.270;11.368;2024-01-06T04:24:01;10.37;;;5.37;;
68989;SDS011;56046;47.270;11.368;2024-01-06T04:26:26;10.73;;;5.20;;
68989;SDS011;56046;47.270;11.368;2024-01-06T04:28:51;10.73;;;5.63;;
68989;SDS011;56046;47.270;11.368;2024-01-06T04:31:17;9.13;;;5.23;;
68989;SDS011;56046;47.270;11.368;2024-01-06T04:33:42;11.90;;;5.23;;
68989;SDS011;56046;47.270;11.368;2024-01-06T04:36:07;9.73;;;4.97;;
68989;SDS011;56046;47.270;11.368;2024-01-06T04:38:32;10.83;;;5.63;;
68989;SDS011;56046;47.270;11.368;2024-01-06T04:40:58;9.17;;;4.53;;
68989;SDS011;56046;47.270;11.368;2024-01-06T04:43:23;8.98;;;4.80;;
68989;SDS011;56046;47.270;11.368;2024-01-06T04:45:48;10.83;;;4.50;;
68989;SDS011;56046;47.270;11.368;2024-01-06T04:48:15;9.67;;;4.87;;
68989;SDS011;56046;47.270;11.368;2024-01-06T04:50:40;9.98;;;5.35;;
68989;SDS011;56046;47.270;11.368;2024-01-06T04:53:05;11.17;;;4.90;;
68989;SDS011;56046;47.270;11.368;2024-01-06T04:55:31;10.23;;;4.90;;
68989;SDS011;56046;47.270;11.368;2024-01-06T04:57:56;10.43;;;4.70;;
68989;SDS011;56046;47.270;11.368;2024-01-06T05:00:21;11.30;;;4.90;;
68989;SDS011;56046;47.270;11.368;2024-01-06T05:02:47;8.13;;;5.20;;
68989;SDS011;56046;47.270;11.368;2024-01-06T05:05:12;8.87;;;4.87;;
68989;SDS011;56046;47.270;11.368;2024-01-06T05:07:37;8.60;;;5.23;;
68989;SDS011;56046;47.270;11.368;2024-01-06T05:10:02;11.20;;;5.40;;
68989;SDS011;56046;47.270;11.368;2024-01-06T05:12:28;9.23;;;5.07;;
68989;SDS011;56046;47.270;11.368;2024-01-06T05:14:53;10.07;;;5.57;;
68989;SDS011;56046;47.270;11.368;2024-01-06T05:17:18;8.13;;;4.97;;
68989;SDS011;56046;47.270;11.368;2024-01-06T05:19:44;10.00;;;5.07;;
68989;SDS011;56046;47.270;11.368;2024-01-06T05:22:09;8.68;;;4.82;;
68989;SDS011;56046;47.270;11.368;2024-01-06T05:24:34;8.93;;;5.40;;
68989;SDS011;56046;47.270;11.368;2024-01-06T05:26:59;9.23;;;5.17;;
68989;SDS011;56046;47.270;11.368;2024-01-06T05:29:25;8.73;;;4.87;;
68989;SDS011;56046;47.270;11.368;2024-01-06T05:31:51;10.03;;;4.97;;
68989;SDS011;56046;47.270;11.368;2024-01-06T05:34:16;10.02;;;4.93;;
68989;SDS011;56046;47.270;11.368;2024-01-06T05:36:42;9.63;;;5.30;;
68989;SDS011;56046;47.270;11.368;2024-01-06T05:39:07;9.57;;;5.40;;
68989;SDS011;56046;47.270;11.368;2024-01-06T05:41:39;10.37;;;5.60;;
68989;SDS011;56046;47.270;11.368;2024-01-06T05:44:05;12.48;;;5.82;;
68989;SDS011;56046;47.270;11.368;2024-01-06T05:46:30;17.80;;;9.45;;
68989;SDS011;56046;47.270;11.368;2024-01-06T05:48:56;26.00;;;14.60;;
68989;SDS011;56046;47.270;11.368;2024-01-06T05:51:21;19.30;;;11.60;;
68989;SDS011;56046;47.270;11.368;2024-01-06T05:53:46;20.93;;;10.40;;
68989;SDS011;56046;47.270;11.368;2024-01-06T05:56:18;13.63;;;7.47;;
68989;SDS011;56046;47.270;11.368;2024-01-06T05:58:46;9.00;;;5.57;;
68989;SDS011;56046;47.270;11.368;2024-01-06T06:01:11;10.00;;;5.07;;
68989;SDS011;56046;47.270;11.368;2024-01-06T06:03:37;15.07;;;9.83;;
68989;SDS011;56046;47.270;11.368;2024-01-06T06:06:02;33.57;;;26.00;;
68989;SDS011;56046;47.270;11.368;2024-01-06T06:08:27;32.27;;;26.80;;
68989;SDS011;56046;47.270;11.368;2024-01-06T06:10:53;18.97;;;15.00;;
68989;SDS011;56046;47.270;11.368;2024-01-06T06:13:30;24.80;;;18.55;;
68989;SDS011;56046;47.270;11.368;2024-01-06T06:15:55;14.17;;;9.50;;
68989;SDS011;56046;47.270;11.368;2024-01-06T06:18:21;11.93;;;7.10;;
68989;SDS011;56046;47.270;11.368;2024-01-06T06:20:46;13.90;;;8.00;;
68989;SDS011;56046;47.270;11.368;2024-01-06T06:23:12;12.80;;;6.47;;
68989;SDS011;56046;47.270;11.368;2024-01-06T06:25:40;11.32;;;5.72;;
68989;SDS011;56046;47.270;11.368;2024-01-06T06:28:06;10.30;;;5.50;;
68989;SDS011;56046;47.270;11.368;2024-01-06T06:30:31;13.45;;;7.80;;
68989;SDS011;56046;47.270;11.368;2024-01-06T06:32:56;17.70;;;10.17;;
68989;SDS011;56046;47.270;11.368;2024-01-06T06:35:22;15.93;;;10.07;;
68989;SDS011;56046;47.270;11.368;2024-01-06T06:37:48;15.52;;;10.30;;
68989;SDS011;56046;47.270;11.368;2024-01-06T06:40:14;14.17;;;8.87;;
68989;SDS011;56046;47.270;11.368;2024-01-06T06:42:39;12.52;;;7.13;;
68989;SDS011;56046;47.270;11.368;2024-01-06T06:45:04;13.05;;;6.75;;
68989;SDS011;56046;47.270;11.368;2024-01-06T06:47:30;15.25;;;8.38;;
68989;SDS011;56046;47.270;11.368;2024-01-06T06:49:55;13.00;;;7.50;;
68989;SDS011;56046;47.270;11.368;2024-01-06T06:52:20;12.57;;;7.00;;
68989;SDS011;56046;47.270;11.368;2024-01-06T06:54:45;10.13;;;6.20;;
68989;SDS011;56046;47.270;11.368;2024-01-06T06:57:11;11.33;;;6.33;;
68989;SDS011;56046;47.270;11.368;2024-01-06T06:59:36;13.27;;;6.97;;
68989;SDS011;56046;47.270;11.368;2024-01-06T07:02:02;11.40;;;6.20;;
68989;SDS011;56046;47.270;11.368;2024-01-06T07:04:27;14.50;;;6.65;;
68989;SDS011;56046;47.270;11.368;2024-01-06T07:06:52;16.57;;;9.93;;
68989;SDS011;56046;47.270;11.368;2024-01-06T07:09:18;19.87;;;12.83;;
68989;SDS011;56046;47.270;11.368;2024-01-06T07:11:43;15.77;;;10.80;;
68989;SDS011;56046;47.270;11.368;2024-01-06T07:14:09;14.83;;;10.43;;
68989;SDS011;56046;47.270;11.368;2024-01-06T07:16:34;15.40;;;8.88;;
68989;SDS011;56046;47.270;11.368;2024-01-06T07:18:59;13.30;;;7.88;;
68989;SDS011;56046;47.270;11.368;2024-01-06T07:21:24;16.15;;;9.15;;
68989;SDS011;56046;47.270;11.368;2024-01-06T07:23:50;18.00;;;10.20;;
68989;SDS011;56046;47.270;11.368;2024-01-06T07:26:15;17.85;;;10.93;;
68989;SDS011;56046;47.270;11.368;2024-01-06T07:28:40;16.73;;;10.33;;
68989;SDS011;56046;47.270;11.368;2024-01-06T07:31:05;15.03;;;9.50;;
68989;SDS011;56046;47.270;11.368;2024-01-06T07:33:31;16.13;;;9.67;;
68989;SDS011;56046;47.270;11.368;2024-01-06T07:35:56;17.10;;;10.90;;
68989;SDS011;56046;47.270;11.368;2024-01-06T07:38:21;13.57;;;8.43;;
68989;SDS011;56046;47.270;11.368;2024-01-06T07:40:47;15.23;;;10.20;;
68989;SDS011;56046;47.270;11.368;2024-01-06T07:43:12;13.80;;;8.43;;
68989;SDS011;56046;47.270;11.368;2024-01-06T07:45:37;13.95;;;8.07;;
68989;SDS011;56046;47.270;11.368;2024-01-06T07:48:03;14.02;;;8.55;;
68989;SDS011;56046;47.270;11.368;2024-01-06T07:50:28;14.37;;;8.20;;
68989;SDS011;56046;47.270;11.368;2024-01-06T07:52:54;13.70;;;8.40;;
68989;SDS011;56046;47.270;11.368;2024-01-06T07:55:19;17.70;;;10.53;;
68989;SDS011;56046;47.270;11.368;2024-01-06T07:57:44;16.27;;;9.33;;
68989;SDS011;56046;47.270;11.368;2024-01-06T08:00:10;14.57;;;9.10;;
68989;SDS011;56046;47.270;11.368;2024-01-06T08:02:35;14.35;;;7.88;;
68989;SDS011;56046;47.270;11.368;2024-01-06T08:05:01;16.77;;;10.10;;
68989;SDS011;56046;47.270;11.368;2024-01-06T08:07:26;15.30;;;9.00;;
68989;SDS011;56046;47.270;11.368;2024-01-06T08:09:51;14.70;;;9.23;;
68989;SDS011;56046;47.270;11.368;2024-01-06T08:12:17;19.77;;;11.63;;
68989;SDS011;56046;47.270;11.368;2024-01-06T08:14:43;17.40;;;9.57;;
68989;SDS011;56046;47.270;11.368;2024-01-06T08:17:08;16.53;;;8.20;;
68989;SDS011;56046;47.270;11.368;2024-01-06T08:19:33;14.70;;;8.13;;
68989;SDS011;56046;47.270;11.368;2024-01-06T08:22:00;15.23;;;9.75;;
68989;SDS011;56046;47.270;11.368;2024-01-06T08:24:26;12.73;;;7.87;;
68989;SDS011;56046;47.270;11.368;2024-01-06T08:26:51;16.38;;;9.90;;
68989;SDS011;56046;47.270;11.368;2024-01-06T08:29:16;16.35;;;9.10;;
68989;SDS011;56046;47.270;11.368;2024-01-06T08:31:44;17.48;;;10.35;;
68989;SDS011;56046;47.270;11.368;2024-01-06T08:34:09;16.40;;;9.77;;
68989;SDS011;56046;47.270;11.368;2024-01-06T08:36:34;14.70;;;8.82;;
68989;SDS011;56046;47.270;11.368;2024-01-06T08:39:00;18.08;;;9.82;;
68989;SDS011;56046;47.270;11.368;2024-01-06T08:41:25;16.17;;;9.13;;
68989;SDS011;56046;47.270;11.368;2024-01-06T08:43:51;15.53;;;8.90;;
68989;SDS011;56046;47.270;11.368;2024-01-06T08:46:16;15.10;;;9.17;;
68989;SDS011;56046;47.270;11.368;2024-01-06T08:48:42;16.77;;;9.80;;
68989;SDS011;56046;47.270;11.368;2024-01-06T08:51:07;15.07;;;8.75;;
68989;SDS011;56046;47.270;11.368;2024-01-06T08:53:32;17.77;;;9.30;;
68989;SDS011;56046;47.270;11.368;2024-01-06T08:55:57;14.03;;;8.20;;
68989;SDS011;56046;47.270;11.368;2024-01-06T08:58:23;15.70;;;9.43;;
68989;SDS011;56046;47.270;11.368;2024-01-06T09:00:48;17.33;;;10.13;;
68989;SDS011;56046;47.270;11.368;2024-01-06T09:03:15;15.85;;;9.07;;
68989;SDS011;56046;47.270;11.368;2024-01-06T09:05:40;12.30;;;8.17;;
68989;SDS011;56046;47.270;11.368;2024-01-06T09:08:05;36.97;;;18.90;;
68989;SDS011;56046;47.270;11.368;2024-01-06T09:10:31;25.93;;;15.70;;
68989;SDS011;56046;47.270;11.368;2024-01-06T09:12:56;20.97;;;12.80;;
68989;SDS011;56046;47.270;11.368;2024-01-06T09:15:21;18.20;;;11.37;;
68989;SDS011;56046;47.270;11.368;2024-01-06T09:17:47;13.55;;;8.98;;
68989;SDS011;56046;47.270;11.368;2024-01-06T09:20:13;11.65;;;7.40;;
68989;SDS011;56046;47.270;11.368;2024-01-06T09:22:38;12.80;;;8.37;;
68989;SDS011;56046;47.270;11.368;2024-01-06T09:25:03;11.50;;;7.43;;
68989;SDS011;56046;47.270;11.368;2024-01-06T09:27:29;12.43;;;7.65;;
68989;SDS011;56046;47.270;11.368;2024-01-06T09:29:54;13.13;;;7.33;;
68989;SDS011;56046;47.270;11.368;2024-01-06T09:32:19;13.53;;;8.80;;
68989;SDS011;56046;47.270;11.368;2024-01-06T09:34:44;19.37;;;11.30;;
68989;SDS011;56046;47.270;11.368;2024-01-06T09:37:10;14.20;;;8.23;;
68989;SDS011;56046;47.270;11.368;2024-01-06T09:39:35;14.47;;;9.17;;
68989;SDS011;56046;47.270;11.368;2024-01-06T09:42:00;14.77;;;8.07;;
68989;SDS011;56046;47.270;11.368;2024-01-06T09:44:26;16.00;;;8.90;;
68989;SDS011;56046;47.270;11.368;2024-01-06T09:46:51;16.17;;;9.17;;
68989;SDS011;56046;47.270;11.368;2024-01-06T09:49:18;15.68;;;8.48;;
68989;SDS011;56046;47.270;11.368;2024-01-06T09:51:48;17.08;;;8.85;;
68989;SDS011;56046;47.270;11.368;2024-01-06T09:54:16;16.85;;;10.05;;
68989;SDS011;56046;47.270;11.368;2024-01-06T09:56:44;17.65;;;9.55;;
68989;SDS011;56046;47.270;11.368;2024-01-06T09:59:10;16.70;;;9.45;;
68989;SDS011;56046;47.270;11.368;2024-01-06T10:01:35;17.80;;;9.70;;
68989;SDS011;56046;47.270;11.368;2024-01-06T10:04:01;16.38;;;9.73;;
68989;SDS011;56046;47.270;11.368;2024-01-06T10:06:26;15.67;;;9.03;;
68989;SDS011;56046;47.270;11.368;2024-01-06T10:08:52;20.97;;;11.60;;
68989;SDS011;56046;47.270;11.368;2024-01-06T10:11:26;23.70;;;12.25;;
68989;SDS011;56046;47.270;11.368;2024-01-06T10:13:52;24.67;;;13.23;;
68989;SDS011;56046;47.270;11.368;2024-01-06T10:16:19;22.50;;;13.38;;
68989;SDS011;56046;47.270;11.368;2024-01-06T10:18:44;21.45;;;13.23;;
68989;SDS011;56046;47.270;11.368;2024-01-06T10:21:10;20.93;;;12.70;;
68989;SDS011;56046;47.270;11.368;2024-01-06T10:23:36;22.00;;;12.93;;
68989;SDS011;56046;47.270;11.368;2024-01-06T10:26:01;21.75;;;12.57;;
68989;SDS011;56046;47.270;11.368;2024-01-06T10:28:28;20.50;;;11.32;;
68989;SDS011;56046;47.270;11.368;2024-01-06T10:30:53;17.73;;;10.20;;
68989;SDS011;56046;47.270;11.368;2024-01-06T10:33:19;16.67;;;9.63;;
68989;SDS011;56046;47.270;11.368;2024-01-06T10:35:45;16.75;;;9.90;;
68989;SDS011;56046;47.270;11.368;2024-01-06T10:38:11;19.27;;;10.53;;
68989;SDS011;56046;47.270;11.368;2024-01-06T10:40:36;18.40;;;11.07;;
68989;SDS011;56046;47.270;11.368;2024-01-06T10:43:01;23.13;;;13.37;;
68989;SDS011;56046;47.270;11.368;2024-01-06T10:45:28;22.08;;;12.18;;
68989;SDS011;56046;47.270;11.368;2024-01-06T10:47:55;19.80;;;11.45;;
68989;SDS011;56046;47.270;11.368;2024-01-06T10:50:20;19.30;;;11.27;;
68989;SDS011;56046;47.270;11.368;2024-01-06T10:52:46;17.75;;;11.02;;
68989;SDS011;56046;47.270;11.368;2024-01-06T10:55:12;18.17;;;10.90;;
68989;SDS011;56046;47.270;11.368;2024-01-06T10:57:39;15.32;;;9.40;;
68989;SDS011;56046;47.270;11.368;2024-01-06T11:00:06;17.70;;;9.38;;
68989;SDS011;56046;47.270;11.368;2024-01-06T11:02:31;17.52;;;9.50;;
68989;SDS011;56046;47.270;11.368;2024-01-06T11:04:57;19.63;;;11.00;;
68989;SDS011;56046;47.270;11.368;2024-01-06T11:07:22;22.27;;;11.77;;
68989;SDS011;56046;47.270;11.368;2024-01-06T11:09:50;17.00;;;10.23;;
68989;SDS011;56046;47.270;11.368;2024-01-06T11:12:18;20.60;;;11.82;;
68989;SDS011;56046;47.270;11.368;2024-01-06T11:14:43;20.85;;;12.10;;
68989;SDS011;56046;47.270;11.368;2024-01-06T11:17:10;21.57;;;11.23;;
68989;SDS011;56046;47.270;11.368;2024-01-06T11:22:17;19.08;;;10.77;;
68989;SDS011;56046;47.270;11.368;2024-01-06T11:24:43;16.15;;;9.98;;
68989;SDS011;56046;47.270;11.368;2024-01-06T11:27:16;15.15;;;8.88;;
68989;SDS011;56046;47.270;11.368;2024-01-06T11:29:43;11.77;;;7.25;;
68989;SDS011;56046;47.270;11.368;2024-01-06T11:32:24;11.75;;;7.07;;
68989;SDS011;56046;47.270;11.368;2024-01-06T11:34:50;11.60;;;7.30;;
68989;SDS011;56046;47.270;11.368;2024-01-06T11:40:01;16.67;;;8.63;;
68989;SDS011;56046;47.270;11.368;2024-01-06T11:42:33;13.57;;;8.00;;
68989;SDS011;56046;47.270;11.368;2024-01-06T11:45:02;20.15;;;12.20;;
68989;SDS011;56046;47.270;11.368;2024-01-06T11:47:28;18.08;;;11.50;;
68989;SDS011;56046;47.270;11.368;2024-01-06T11:49:55;14.63;;;9.40;;
68989;SDS011;56046;47.270;11.368;2024-01-06T11:52:21;16.48;;;11.00;;
68989;SDS011;56046;47.270;11.368;2024-01-06T11:54:46;10.93;;;7.30;;
68989;SDS011;56046;47.270;11.368;2024-01-06T11:57:12;13.20;;;8.43;;
68989;SDS011;56046;47.270;11.368;2024-01-06T11:59:37;11.80;;;8.27;;
68989;SDS011;56046;47.270;11.368;2024-01-06T12:02:02;13.70;;;8.37;;
68989;SDS011;56046;47.270;11.368;2024-01-06T12:04:28;11.07;;;7.57;;
68989;SDS011;56046;47.270;11.368;2024-01-06T12:07:04;12.75;;;7.32;;
68989;SDS011;56046;47.270;11.368;2024-01-06T12:09:29;11.75;;;6.95;;
68989;SDS011;56046;47.270;11.368;2024-01-06T12:12:01;10.70;;;6.30;;
68989;SDS011;56046;47.270;11.368;2024-01-06T12:14:26;11.45;;;7.03;;
68989;SDS011;56046;47.270;11.368;2024-01-06T12:16:52;11.40;;;6.83;;
68989;SDS011;56046;47.270;11.368;2024-01-06T12:19:18;9.98;;;6.47;;
68989;SDS011;56046;47.270;11.368;2024-01-06T12:21:43;9.43;;;5.73;;
68989;SDS011;56046;47.270;11.368;2024-01-06T12:24:18;10.17;;;6.30;;
68989;SDS011;56046;47.270;11.368;2024-01-06T12:26:46;11.75;;;6.93;;
68989;SDS011;56046;47.270;11.368;2024-01-06T12:29:12;14.07;;;7.90;;
68989;SDS011;56046;47.270;11.368;2024-01-06T12:31:38;16.17;;;9.50;;
68989;SDS011;56046;47.270;11.368;2024-01-06T12:34:03;13.88;;;8.75;;
68989;SDS011;56046;47.270;11.368;2024-01-06T12:36:29;16.90;;;9.35;;
68989;SDS011;56046;47.270;11.368;2024-01-06T12:38:59;17.00;;;9.80;;
68989;SDS011;56046;47.270;11.368;2024-01-06T12:41:24;19.42;;;11.35;;
68989;SDS011;56046;47.270;11.368;2024-01-06T12:43:49;17.50;;;10.00;;
68989;SDS011;56046;47.270;11.368;2024-01-06T12:46:14;21.07;;;11.97;;
68989;SDS011;56046;47.270;11.368;2024-01-06T12:48:40;21.33;;;10.90;;
68989;SDS011;56046;47.270;11.368;2024-01-06T12:51:05;19.03;;;10.37;;
68989;SDS011;56046;47.270;11.368;2024-01-06T12:53:30;15.87;;;9.57;;
68989;SDS011;56046;47.270;11.368;2024-01-06T12:55:56;20.37;;;12.60;;
68989;SDS011;56046;47.270;11.368;2024-01-06T12:58:21;18.93;;;10.40;;
68989;SDS011;56046;47.270;11.368;2024-01-06T13:00:46;18.48;;;10.23;;
68989;SDS011;56046;47.270;11.368;2024-01-06T13:03:12;18.40;;;9.93;;
68989;SDS011;56046;47.270;11.368;2024-01-06T13:05:38;14.80;;;8.70;;
68989;SDS011;56046;47.270;11.368;2024-01-06T13:08:03;14.20;;;8.93;;
68989;SDS011;56046;47.270;11.368;2024-01-06T13:10:29;15.73;;;9.27;;
68989;SDS011;56046;47.270;11.368;2024-01-06T13:12:54;15.47;;;9.40;;
68989;SDS011;56046;47.270;11.368;2024-01-06T13:15:19;13.23;;;8.63;;
68989;SDS011;56046;47.270;11.368;2024-01-06T13:17:45;14.60;;;8.73;;
68989;SDS011;56046;47.270;11.368;2024-01-06T13:20:10;14.57;;;8.90;;
68989;SDS011;56046;47.270;11.368;2024-01-06T13:22:35;16.02;;;9.15;;
68989;SDS011;56046;47.270;11.368;2024-01-06T13:25:01;13.95;;;9.18;;
68989;SDS011;56046;47.270;11.368;2024-01-06T13:27:26;16.75;;;9.43;;
68989;SDS011;56046;47.270;11.368;2024-01-06T13:29:54;15.23;;;9.17;;
68989;SDS011;56046;47.270;11.368;2024-01-06T13:32:19;14.10;;;8.53;;
68989;SDS011;56046;47.270;11.368;2024-01-06T13:34:47;14.25;;;8.73;;
68989;SDS011;56046;47.270;11.368;2024-01-06T13:37:12;14.27;;;8.97;;
68989;SDS011;56046;47.270;11.368;2024-01-06T13:39:37;15.00;;;8.60;;
68989;SDS011;56046;47.270;11.368;2024-01-06T13:42:03;13.13;;;8.60;;
68989;SDS011;56046;47.270;11.368;2024-01-06T13:44:31;12.80;;;8.20;;
68989;SDS011;56046;47.270;11.368;2024-01-06T13:46:56;12.77;;;7.93;;
68989;SDS011;56046;47.270;11.368;2024-01-06T13:49:22;12.73;;;8.23;;
68989;SDS011;56046;47.270;11.368;2024-01-06T13:51:48;13.35;;;8.82;;
68989;SDS011;56046;47.270;11.368;2024-01-06T13:54:14;15.87;;;10.13;;
68989;SDS011;56046;47.270;11.368;2024-01-06T13:56:39;14.85;;;9.23;;
68989;SDS011;56046;47.270;11.368;2024-01-06T13:59:04;15.10;;;9.35;;
68989;SDS011;56046;47.270;11.368;2024-01-06T14:01:30;15.18;;;9.27;;
68989;SDS011;56046;47.270;11.368;2024-01-06T14:03:55;20.07;;;11.00;;
68989;SDS011;56046;47.270;11.368;2024-01-06T14:06:25;23.02;;;13.02;;
68989;SDS011;56046;47.270;11.368;2024-01-06T14:08:54;22.70;;;12.77;;
68989;SDS011;56046;47.270;11.368;2024-01-06T14:11:19;23.90;;;12.88;;
68989;SDS011;56046;47.270;11.368;2024-01-06T14:13:45;22.30;;;13.35;;
68989;SDS011;56046;47.270;11.368;2024-01-06T14:16:13;18.83;;;10.73;;
68989;SDS011;56046;47.270;11.368;2024-01-06T14:18:39;19.53;;;12.03;;